createdAt,value
2023-05-10T00:00:16.393Z,593.2308
2023-05-10T00:01:17.560Z,597.0000
2023-05-10T00:02:19.022Z,596.1539
2023-05-10T00:03:20.435Z,584.7692
2023-05-10T00:04:21.912Z,595.8461
2023-05-10T00:05:23.276Z,597.0769
2023-05-10T00:06:25.295Z,597.6923
2023-05-10T00:07:26.094Z,591.0000
2023-05-10T00:08:27.552Z,592.6154
2023-05-10T00:09:28.925Z,595.3077
2023-05-10T00:10:30.366Z,596.0000
2023-05-10T00:11:31.824Z,584.2308
2023-05-10T00:12:33.201Z,584.1539
2023-05-10T00:13:34.690Z,585.9231
2023-05-10T00:14:36.034Z,595.6923
2023-05-10T00:15:37.517Z,568.1539
2023-05-10T00:16:38.972Z,575.3077
2023-05-10T00:17:40.421Z,592.2308
2023-05-10T00:18:41.631Z,586.8461
2023-05-10T00:19:43.176Z,584.1539
2023-05-10T00:20:44.589Z,586.7692
2023-05-10T00:21:46.079Z,558.9231
2023-05-10T00:22:47.486Z,569.6154
2023-05-10T00:23:48.943Z,586.0000
2023-05-10T00:24:50.321Z,578.6154
2023-05-10T00:25:52.373Z,574.3846
2023-05-10T00:26:53.140Z,576.7692
2023-05-10T00:27:54.613Z,538.6154
2023-05-10T00:28:55.940Z,559.2308
2023-05-10T00:29:57.418Z,574.3846
2023-05-10T00:30:58.849Z,583.6154
2023-05-10T00:32:00.347Z,581.7692
2023-05-10T00:33:01.744Z,575.5385
2023-05-10T00:34:03.197Z,553.2308
2023-05-10T00:35:04.600Z,537.9231
2023-05-10T00:36:05.966Z,559.2308
2023-05-10T00:37:07.385Z,566.3077
2023-05-10T00:38:08.821Z,588.7692
2023-05-10T00:39:10.163Z,579.8461
2023-05-10T00:40:11.637Z,571.8461
2023-05-10T00:41:13.821Z,582.2308
2023-05-10T00:42:14.539Z,554.4615
2023-05-10T00:43:15.873Z,574.6154
2023-05-10T00:44:17.345Z,577.4615
2023-05-10T00:45:18.862Z,593.3846
2023-05-10T00:46:20.349Z,578.9231
2023-05-10T00:47:21.700Z,566.7692
2023-05-10T00:48:23.195Z,544.6923
2023-05-10T00:49:24.548Z,548.9231
2023-05-10T00:50:25.893Z,578.6154
2023-05-10T00:51:27.378Z,582.0000
2023-05-10T00:52:28.848Z,590.7692
2023-05-10T00:53:30.190Z,581.5385
2023-05-10T00:54:31.635Z,554.0769
2023-05-10T00:55:33.033Z,540.9231
2023-05-10T00:56:34.526Z,548.3846
2023-05-10T00:57:35.887Z,563.7692
2023-05-10T00:58:37.200Z,565.1539
2023-05-10T00:59:38.711Z,567.6154
2023-05-10T01:00:40.150Z,568.8461
2023-05-10T01:01:41.601Z,569.7692
2023-05-10T01:02:43.071Z,568.3846
2023-05-10T01:03:44.399Z,551.3846
2023-05-10T01:04:45.851Z,560.5385
2023-05-10T01:05:47.242Z,574.5385
2023-05-10T01:06:48.785Z,569.6154
2023-05-10T01:07:50.124Z,575.3077
2023-05-10T01:08:51.555Z,568.1539
2023-05-10T01:09:52.917Z,565.9231
2023-05-10T01:10:54.373Z,547.2308
2023-05-10T01:11:55.815Z,546.5385
2023-05-10T01:12:57.340Z,570.6154
2023-05-10T01:13:58.704Z,580.3846
2023-05-10T01:15:00.162Z,575.4615
2023-05-10T01:16:01.504Z,566.4615
2023-05-10T01:17:02.913Z,561.4615
2023-05-10T01:18:04.317Z,542.0000
2023-05-10T01:19:05.763Z,546.6923
2023-05-10T01:20:07.144Z,562.3077
2023-05-10T01:21:08.592Z,570.0000
2023-05-10T01:22:09.993Z,573.2308
2023-05-10T01:23:12.366Z,569.3846
2023-05-10T01:24:12.837Z,556.1539
2023-05-10T01:25:14.292Z,557.3846
2023-05-10T01:26:15.720Z,543.7692
2023-05-10T01:27:17.165Z,567.0000
2023-05-10T01:28:18.543Z,563.6154
2023-05-10T01:29:19.976Z,572.8461
2023-05-10T01:30:22.187Z,577.7692
2023-05-10T01:31:22.901Z,566.4615
2023-05-10T01:32:24.281Z,551.1539
2023-05-10T01:33:25.600Z,539.6154
2023-05-10T01:34:27.062Z,552.8461
2023-05-10T01:35:28.546Z,565.0769
2023-05-10T01:36:29.962Z,569.4615
2023-05-10T01:37:31.395Z,565.9231
2023-05-10T01:38:32.762Z,568.2308
2023-05-10T01:39:34.224Z,552.6923
2023-05-10T01:40:35.598Z,535.0769
2023-05-10T01:41:37.037Z,534.1539
2023-05-10T01:42:38.477Z,545.2308
2023-05-10T01:43:39.944Z,568.6154
2023-05-10T01:44:41.290Z,576.1539
2023-05-10T01:45:42.751Z,565.1539
2023-05-10T01:46:44.157Z,565.3077
2023-05-10T01:47:45.681Z,553.1539
2023-05-10T01:48:47.043Z,551.4615
2023-05-10T01:49:48.491Z,528.2308
2023-05-10T01:50:49.755Z,546.5385
2023-05-10T01:51:51.375Z,563.1539
2023-05-10T01:52:53.327Z,574.8461
2023-05-10T01:53:54.140Z,553.0769
2023-05-10T01:54:55.503Z,566.3077
2023-05-10T01:55:57.023Z,556.3077
2023-05-10T01:56:58.436Z,542.6923
2023-05-10T01:57:59.760Z,533.8461
2023-05-10T01:59:01.152Z,543.1539
2023-05-10T02:00:02.678Z,559.2308
2023-05-10T02:01:04.065Z,568.4615
2023-05-10T02:02:05.525Z,565.5385
2023-05-10T02:03:07.026Z,569.3077
2023-05-10T02:04:08.468Z,549.4615
2023-05-10T02:05:09.686Z,551.5385
2023-05-10T02:06:11.284Z,516.3846
2023-05-10T02:07:12.584Z,547.0000
2023-05-10T02:08:14.062Z,562.1539
2023-05-10T02:09:15.484Z,575.9231
2023-05-10T02:10:17.098Z,572.6923
2023-05-10T02:11:18.192Z,564.3077
2023-05-10T02:12:19.726Z,555.0000
2023-05-10T02:13:21.251Z,554.8461
2023-05-10T02:14:22.577Z,537.6154
2023-05-10T02:15:24.028Z,538.1539
2023-05-10T02:16:25.452Z,556.1539
2023-05-10T02:17:26.836Z,566.4615
2023-05-10T02:18:28.269Z,573.6154
2023-05-10T02:19:29.782Z,570.1539
2023-05-10T02:20:31.136Z,563.0000
2023-05-10T02:21:32.555Z,544.4615
2023-05-10T02:22:33.886Z,519.8461
2023-05-10T02:23:35.381Z,539.9231
2023-05-10T02:24:36.780Z,561.3077
2023-05-10T02:25:38.092Z,578.0000
2023-05-10T02:26:39.616Z,582.6923
2023-05-10T02:27:41.115Z,567.6154
2023-05-10T02:28:42.428Z,558.0000
2023-05-10T02:29:43.936Z,550.6923
2023-05-10T02:30:45.294Z,523.1539
2023-05-10T02:31:46.741Z,544.3077
2023-05-10T02:32:48.139Z,547.6923
2023-05-10T02:33:49.582Z,564.9231
2023-05-10T02:34:50.920Z,576.3846
2023-05-10T02:35:52.407Z,565.9231
2023-05-10T02:36:53.810Z,550.6154
2023-05-10T02:37:55.279Z,570.6154
2023-05-10T02:38:56.628Z,552.0769
2023-05-10T02:39:58.130Z,549.6923
2023-05-10T02:40:59.480Z,545.1539
2023-05-10T02:42:00.830Z,564.8461
2023-05-10T02:43:02.405Z,570.7692
2023-05-10T02:44:03.750Z,581.7692
2023-05-10T02:45:05.203Z,570.4615
2023-05-10T02:46:06.631Z,574.3077
2023-05-10T02:47:07.972Z,557.0769
2023-05-10T02:48:09.538Z,555.7692
2023-05-10T02:49:10.792Z,543.2308
2023-05-10T02:50:12.307Z,554.8461
2023-05-10T02:51:14.389Z,563.5385
2023-05-10T02:52:15.157Z,567.7692
2023-05-10T02:53:16.514Z,576.6923
2023-05-10T02:54:17.888Z,558.0769
2023-05-10T02:55:19.416Z,571.5385
2023-05-10T02:56:20.916Z,564.9231
2023-05-10T02:57:22.276Z,562.9231
2023-05-10T02:58:23.737Z,531.1539
2023-05-10T02:59:25.074Z,547.8461
2023-05-10T03:00:26.638Z,565.6154
2023-05-10T03:01:27.990Z,583.3077
2023-05-10T03:02:29.346Z,578.0769
2023-05-10T03:03:30.706Z,574.1539
2023-05-10T03:04:32.294Z,568.3846
2023-05-10T03:05:33.649Z,567.4615
2023-05-10T03:06:35.027Z,548.3846
2023-05-10T03:07:36.424Z,539.8461
2023-05-10T03:08:37.963Z,539.0000
2023-05-10T03:09:39.282Z,548.5385
2023-05-10T03:10:40.648Z,564.9231
2023-05-10T03:11:42.128Z,574.7692
2023-05-10T03:12:43.595Z,573.0000
2023-05-10T03:13:44.934Z,563.6923
2023-05-10T03:14:46.388Z,571.1539
2023-05-10T03:15:48.389Z,551.2308
2023-05-10T03:16:49.346Z,545.2308
2023-05-10T03:17:50.727Z,551.8461
2023-05-10T03:18:52.157Z,571.0000
2023-05-10T03:19:53.438Z,571.2308
2023-05-10T03:20:54.988Z,569.8461
2023-05-10T03:21:56.377Z,559.8461
2023-05-10T03:22:57.817Z,578.9231
2023-05-10T03:23:59.178Z,566.3077
2023-05-10T03:25:00.555Z,547.5385
2023-05-10T03:26:02.070Z,547.8461
2023-05-10T03:27:03.519Z,553.2308
2023-05-10T03:28:04.925Z,571.4615
2023-05-10T03:29:06.322Z,574.9231
2023-05-10T03:30:07.715Z,578.5385
2023-05-10T03:31:09.139Z,565.9231
2023-05-10T03:32:10.658Z,582.1539
2023-05-10T03:33:12.068Z,567.7692
2023-05-10T03:34:13.388Z,544.1539
2023-05-10T03:35:14.858Z,538.9231
2023-05-10T03:36:16.235Z,547.0000
2023-05-10T03:37:17.813Z,572.6154
2023-05-10T03:38:19.177Z,581.3846
2023-05-10T03:39:20.581Z,585.4615
2023-05-10T03:40:21.930Z,569.6154
2023-05-10T03:41:23.435Z,580.7692
2023-05-10T03:42:24.812Z,570.6154
2023-05-10T03:43:26.243Z,559.9231
2023-05-10T03:44:27.628Z,531.0000
2023-05-10T03:45:28.938Z,549.3077
2023-05-10T03:46:30.492Z,566.6154
2023-05-10T03:47:31.976Z,580.9231
2023-05-10T03:48:33.326Z,581.3846
2023-05-10T03:49:34.780Z,573.8461
2023-05-10T03:50:36.134Z,572.2308
2023-05-10T03:51:37.567Z,562.6154
2023-05-10T03:52:39.936Z,535.9231
2023-05-10T03:53:40.378Z,554.5385
2023-05-10T03:54:41.844Z,559.3846
2023-05-10T03:55:43.272Z,569.2308
2023-05-10T03:56:44.671Z,579.3846
2023-05-10T03:57:46.161Z,562.3846
2023-05-10T03:58:47.525Z,567.9231
2023-05-10T03:59:48.941Z,558.6923
2023-05-10T04:00:50.326Z,538.1539
2023-05-10T04:01:51.814Z,576.4615
2023-05-10T04:02:53.314Z,559.0000
2023-05-10T04:03:54.750Z,570.0000
2023-05-10T04:04:56.005Z,563.7692
2023-05-10T04:05:57.532Z,569.6154
2023-05-10T04:06:58.910Z,566.2308
2023-05-10T04:08:00.402Z,562.3846
2023-05-10T04:09:02.375Z,537.8461
2023-05-10T04:10:03.214Z,548.3077
2023-05-10T04:11:04.492Z,561.6154
2023-05-10T04:12:06.491Z,572.4615
2023-05-10T04:13:07.699Z,562.0000
2023-05-10T04:14:08.994Z,562.5385
2023-05-10T04:15:10.283Z,559.2308
2023-05-10T04:16:11.823Z,548.5385
2023-05-10T04:17:13.169Z,538.7692
2023-05-10T04:18:14.621Z,555.3846
2023-05-10T04:19:16.028Z,559.9231
2023-05-10T04:20:17.625Z,578.9231
2023-05-10T04:21:18.825Z,564.7692
2023-05-10T04:22:20.294Z,547.7692
2023-05-10T04:23:21.765Z,568.2308
2023-05-10T04:24:23.155Z,554.4615
2023-05-10T04:25:24.588Z,529.7692
2023-05-10T04:26:25.923Z,547.1539
2023-05-10T04:27:27.372Z,549.5385
2023-05-10T04:28:28.773Z,570.9231
2023-05-10T04:29:30.201Z,577.7692
2023-05-10T04:30:31.676Z,568.0769
2023-05-10T04:31:33.133Z,566.4615
2023-05-10T04:32:35.040Z,558.3077
2023-05-10T04:33:35.925Z,545.3846
2023-05-10T04:34:37.382Z,551.3846
2023-05-10T04:35:38.850Z,557.1539
2023-05-10T04:36:40.224Z,579.0000
2023-05-10T04:37:41.673Z,580.6154
2023-05-10T04:38:43.025Z,543.4615
2023-05-10T04:39:45.459Z,577.1539
2023-05-10T04:40:45.899Z,555.0769
2023-05-10T04:41:47.327Z,574.1539
2023-05-10T04:42:48.745Z,545.0000
2023-05-10T04:43:50.178Z,562.7692
2023-05-10T04:44:51.586Z,573.7692
2023-05-10T04:45:53.036Z,584.2308
2023-05-10T04:46:54.511Z,559.7692
2023-05-10T04:47:56.001Z,577.1539
2023-05-10T04:48:57.334Z,563.8461
2023-05-10T04:49:58.826Z,550.7692
2023-05-10T04:51:00.142Z,534.3846
2023-05-10T04:52:01.671Z,559.0769
2023-05-10T04:53:03.071Z,581.3846
2023-05-10T04:54:06.626Z,569.6154
2023-05-10T04:55:06.907Z,581.3846
2023-05-10T04:56:07.266Z,566.5385
2023-05-10T04:57:08.670Z,566.3077
2023-05-10T04:58:10.128Z,538.3846
2023-05-10T04:59:11.583Z,547.1539
2023-05-10T05:00:12.999Z,576.2308
2023-05-10T05:01:14.383Z,581.6923
2023-05-10T05:02:15.890Z,571.4615
2023-05-10T05:03:17.266Z,572.0769
2023-05-10T05:04:18.618Z,564.1539
2023-05-10T05:05:20.068Z,559.5385
2023-05-10T05:06:21.526Z,558.8461
2023-05-10T05:07:22.845Z,570.7692
2023-05-10T05:08:24.385Z,588.0000
2023-05-10T05:09:25.728Z,584.5385
2023-05-10T05:10:27.134Z,585.2308
2023-05-10T05:11:29.465Z,573.3077
2023-05-10T05:12:30.034Z,565.2308
2023-05-10T05:13:31.458Z,553.4615
2023-05-10T05:14:32.849Z,552.7692
2023-05-10T05:15:34.265Z,576.3846
2023-05-10T05:16:35.865Z,564.2308
2023-05-10T05:17:37.219Z,582.4615
2023-05-10T05:18:38.584Z,574.9231
2023-05-10T05:19:39.990Z,576.6154
2023-05-10T05:20:42.557Z,583.6923
2023-05-10T05:21:42.867Z,548.6154
2023-05-10T05:22:44.298Z,567.6923
2023-05-10T05:23:45.678Z,579.3846
2023-05-10T05:24:47.198Z,582.4615
2023-05-10T05:25:48.525Z,566.7692
2023-05-10T05:26:50.057Z,565.3077
2023-05-10T05:27:51.423Z,576.3846
2023-05-10T05:28:52.767Z,556.6154
2023-05-10T05:29:54.239Z,565.1539
2023-05-10T05:30:55.859Z,576.0769
2023-05-10T05:31:57.237Z,588.7692
2023-05-10T05:32:58.541Z,570.7692
2023-05-10T05:33:59.956Z,565.9231
2023-05-10T05:35:01.449Z,578.0000
2023-05-10T05:36:02.876Z,567.6154
2023-05-10T05:37:04.252Z,563.6923
2023-05-10T05:38:05.653Z,570.0000
2023-05-10T05:39:06.924Z,591.0769
2023-05-10T05:40:08.373Z,582.4615
2023-05-10T05:41:09.937Z,576.2308
2023-05-10T05:42:11.409Z,579.3846
2023-05-10T05:43:13.230Z,572.7692
2023-05-10T05:44:14.071Z,559.3846
2023-05-10T05:45:15.896Z,567.0000
2023-05-10T05:46:17.033Z,596.8461
2023-05-10T05:47:18.462Z,574.1539
2023-05-10T05:48:19.802Z,573.0769
2023-05-10T05:49:21.264Z,584.6923
2023-05-10T05:50:22.649Z,569.5385
2023-05-10T05:51:24.142Z,563.0769
2023-05-10T05:52:25.602Z,558.7692
2023-05-10T05:53:26.905Z,584.6154
2023-05-10T05:54:28.330Z,576.0000
2023-05-10T05:55:29.687Z,570.1539
2023-05-10T05:56:31.251Z,580.4615
2023-05-10T05:57:32.668Z,582.2308
2023-05-10T05:58:34.189Z,566.5385
2023-05-10T05:59:35.480Z,568.9231
2023-05-10T06:00:36.880Z,583.6923
2023-05-10T06:01:38.371Z,595.0000
2023-05-10T06:02:39.940Z,592.1539
2023-05-10T06:03:41.208Z,565.9231
2023-05-10T06:04:44.689Z,570.5385
2023-05-10T06:05:44.110Z,594.6923
2023-05-10T06:06:45.405Z,605.7692
2023-05-10T06:07:46.852Z,617.3846
2023-05-10T06:08:48.219Z,640.2308
2023-05-10T06:09:49.686Z,659.2308
2023-05-10T06:10:51.096Z,681.2308
2023-05-10T06:11:52.543Z,691.2308
2023-05-10T06:12:53.928Z,686.8461
2023-05-10T06:13:55.253Z,657.3846
2023-05-10T06:14:56.731Z,659.7692
2023-05-10T06:15:58.144Z,685.5385
2023-05-10T06:16:59.626Z,703.5385
2023-05-10T06:18:01.046Z,723.4615
2023-05-10T06:19:02.333Z,737.9231
2023-05-10T06:20:03.856Z,745.4615
2023-05-10T06:21:05.186Z,750.7692
2023-05-10T06:22:06.719Z,750.0769
2023-05-10T06:23:08.043Z,756.8461
2023-05-10T06:24:09.655Z,770.7692
2023-05-10T06:25:10.879Z,781.0000
2023-05-10T06:26:12.309Z,785.9231
2023-05-10T06:27:13.812Z,768.3846
2023-05-10T06:28:15.234Z,791.0000
2023-05-10T06:29:16.609Z,802.1539
2023-05-10T06:30:18.222Z,820.8461
2023-05-10T06:31:19.518Z,846.2308
2023-05-10T06:32:20.920Z,831.8461
2023-05-10T06:33:22.311Z,775.6154
2023-05-10T06:34:23.755Z,798.8461
2023-05-10T06:35:25.159Z,829.3077
2023-05-10T06:36:26.689Z,844.4615
2023-05-10T06:37:28.147Z,862.1539
2023-05-10T06:38:29.641Z,864.1539
2023-05-10T06:39:30.878Z,828.0769
2023-05-10T06:40:32.847Z,804.9231
2023-05-10T06:41:33.689Z,841.5385
2023-05-10T06:42:35.311Z,868.0000
2023-05-10T06:43:36.631Z,895.2308
2023-05-10T06:44:37.922Z,891.0769
2023-05-10T06:45:39.346Z,831.1539
2023-05-10T06:46:40.772Z,846.2308
2023-05-10T06:47:42.255Z,880.9231
2023-05-10T06:48:43.718Z,903.3846
2023-05-10T06:49:45.009Z,913.9231
2023-05-10T06:50:46.534Z,866.1539
2023-05-10T06:51:47.913Z,858.4615
2023-05-10T06:52:50.214Z,887.1539
2023-05-10T06:53:51.142Z,918.7692
2023-05-10T06:54:52.216Z,918.3077
2023-05-10T06:55:53.586Z,859.9231
2023-05-10T06:56:55.057Z,864.7692
2023-05-10T06:57:56.494Z,907.2308
2023-05-10T06:58:57.916Z,941.0769
2023-05-10T06:59:59.286Z,930.9231
2023-05-10T07:01:00.804Z,877.0000
2023-05-10T07:02:02.180Z,880.3077
2023-05-10T07:03:03.644Z,922.6154
2023-05-10T07:04:04.960Z,944.0000
2023-05-10T07:05:06.474Z,914.1539
2023-05-10T07:06:11.356Z,855.0000
2023-05-10T07:07:09.323Z,892.7500
2023-05-10T07:08:10.747Z,936.2308
2023-05-10T07:09:12.213Z,956.3846
2023-05-10T07:10:13.531Z,897.0000
2023-05-10T07:11:14.998Z,854.3846
2023-05-10T07:12:16.729Z,902.1539
2023-05-10T07:13:17.915Z,938.1539
2023-05-10T07:14:19.287Z,946.6923
2023-05-10T07:15:20.763Z,879.4615
2023-05-10T07:16:22.058Z,863.5385
2023-05-10T07:17:23.593Z,915.2308
2023-05-10T07:18:24.926Z,946.5385
2023-05-10T07:19:26.388Z,934.3846
2023-05-10T07:20:27.814Z,838.0769
2023-05-10T07:21:29.293Z,838.2308
2023-05-10T07:22:30.596Z,878.2308
2023-05-10T07:23:32.123Z,904.4615
2023-05-10T07:24:33.456Z,914.0769
2023-05-10T07:25:34.932Z,861.3846
2023-05-10T07:26:36.404Z,799.0000
2023-05-10T07:27:37.743Z,834.7692
2023-05-10T07:28:39.300Z,861.2308
2023-05-10T07:29:40.615Z,878.3077
2023-05-10T07:30:42.089Z,892.0000
2023-05-10T07:31:43.433Z,858.6154
2023-05-10T07:32:44.896Z,789.5385
2023-05-10T07:33:46.283Z,817.2308
2023-05-10T07:34:47.732Z,832.3077
2023-05-10T07:35:49.138Z,850.8461
2023-05-10T07:36:50.571Z,866.0000
2023-05-10T07:37:51.997Z,880.6923
2023-05-10T07:38:53.433Z,826.2308
2023-05-10T07:39:54.922Z,768.1539
2023-05-10T07:40:56.314Z,791.6154
2023-05-10T07:41:57.589Z,818.3077
2023-05-10T07:42:59.162Z,830.3077
2023-05-10T07:44:00.589Z,844.9231
2023-05-10T07:45:02.032Z,859.2308
2023-05-10T07:46:03.501Z,856.9231
2023-05-10T07:47:04.803Z,778.5385
2023-05-10T07:48:06.387Z,768.1539
2023-05-10T07:49:07.585Z,798.0769
2023-05-10T07:50:09.217Z,815.7692
2023-05-10T07:51:10.630Z,821.0000
2023-05-10T07:52:12.051Z,836.5385
2023-05-10T07:53:13.424Z,847.3846
2023-05-10T07:54:14.887Z,825.7692
2023-05-10T07:55:16.533Z,761.8461
2023-05-10T07:56:17.741Z,779.6923
2023-05-10T07:57:19.013Z,798.3846
2023-05-10T07:58:20.498Z,816.6923
2023-05-10T07:59:21.980Z,832.4615
2023-05-10T08:00:23.470Z,838.3077
2023-05-10T08:01:24.819Z,838.3846
2023-05-10T08:02:26.407Z,833.0000
2023-05-10T08:03:27.759Z,766.0000
2023-05-10T08:04:29.372Z,780.0000
2023-05-10T08:05:30.535Z,797.0000
2023-05-10T08:06:32.062Z,817.0769
2023-05-10T08:07:33.399Z,827.5385
2023-05-10T08:08:34.796Z,843.3077
2023-05-10T08:09:36.447Z,852.8461
2023-05-10T08:10:37.708Z,795.6154
2023-05-10T08:11:39.092Z,763.6154
2023-05-10T08:12:40.622Z,787.1539
2023-05-10T08:13:41.825Z,811.2308
2023-05-10T08:14:43.706Z,829.3846
2023-05-10T08:15:44.798Z,831.6923
2023-05-10T08:16:46.244Z,845.4615
2023-05-10T08:17:47.595Z,791.8461
2023-05-10T08:18:49.118Z,748.4615
2023-05-10T08:19:50.416Z,779.0000
2023-05-10T08:20:51.821Z,797.6154
2023-05-10T08:21:53.357Z,818.8461
2023-05-10T08:22:54.823Z,837.2308
2023-05-10T08:23:56.245Z,845.3077
2023-05-10T08:24:57.669Z,843.0000
2023-05-10T08:25:59.034Z,771.1539
2023-05-10T08:27:00.496Z,776.0000
2023-05-10T08:28:01.876Z,800.8461
2023-05-10T08:29:03.291Z,822.0769
2023-05-10T08:30:04.726Z,838.6923
2023-05-10T08:31:06.289Z,863.0769
2023-05-10T08:32:07.623Z,868.3077
2023-05-10T08:33:08.985Z,831.0000
2023-05-10T08:34:10.417Z,792.0769
2023-05-10T08:35:11.841Z,823.4615
2023-05-10T08:36:13.355Z,840.0000
2023-05-10T08:37:14.792Z,854.9231
2023-05-10T08:38:16.098Z,871.2308
2023-05-10T08:39:29.383Z,875.3846
2023-05-10T08:40:19.071Z,863.1667
2023-05-10T08:41:20.440Z,781.3077
2023-05-10T08:42:22.185Z,788.7692
2023-05-10T08:43:23.225Z,810.3077
2023-05-10T08:44:24.689Z,828.3846
2023-05-10T08:45:26.196Z,834.0769
2023-05-10T08:46:27.715Z,844.9231
2023-05-10T08:47:29.053Z,854.3846
2023-05-10T08:48:30.726Z,850.6154
2023-05-10T08:49:32.011Z,786.7692
2023-05-10T08:50:33.432Z,770.7692
2023-05-10T08:51:34.835Z,788.8461
2023-05-10T08:52:36.446Z,811.0000
2023-05-10T08:53:37.695Z,824.9231
2023-05-10T08:54:39.080Z,828.4615
2023-05-10T08:55:40.321Z,833.3846
2023-05-10T08:56:42.055Z,844.0769
2023-05-10T08:57:43.373Z,793.8461
2023-05-10T08:58:44.722Z,756.0769
2023-05-10T08:59:46.221Z,777.6154
2023-05-10T09:00:48.158Z,791.5385
2023-05-10T09:01:49.124Z,809.3846
2023-05-10T09:02:50.689Z,821.4615
2023-05-10T09:03:51.811Z,816.2308
2023-05-10T09:04:53.354Z,826.0769
2023-05-10T09:05:54.729Z,813.6923
2023-05-10T09:06:56.194Z,751.9231
2023-05-10T09:07:57.533Z,770.5385
2023-05-10T09:08:59.291Z,790.4615
2023-05-10T09:10:00.372Z,805.3077
2023-05-10T09:11:01.761Z,816.6923
2023-05-10T09:12:03.305Z,822.3846
2023-05-10T09:13:04.840Z,829.0769
2023-05-10T09:14:06.045Z,763.3846
2023-05-10T09:15:07.460Z,749.7692
2023-05-10T09:16:20.439Z,785.6923
2023-05-10T09:17:10.503Z,805.2500
2023-05-10T09:18:11.857Z,820.5385
2023-05-10T09:19:13.385Z,822.6923
2023-05-10T09:20:14.494Z,840.2308
2023-05-10T09:21:16.217Z,808.5385
2023-05-10T09:22:17.456Z,754.8461
2023-05-10T09:23:18.761Z,773.3077
2023-05-10T09:24:20.348Z,799.7692
2023-05-10T09:25:21.793Z,816.0000
2023-05-10T09:26:23.058Z,813.2308
2023-05-10T09:27:24.776Z,831.1539
2023-05-10T09:28:26.133Z,833.8461
2023-05-10T09:29:27.615Z,767.3846
2023-05-10T09:30:28.786Z,745.3846
2023-05-10T09:31:30.589Z,776.3077
2023-05-10T09:32:31.779Z,790.1539
2023-05-10T09:33:33.402Z,801.7692
2023-05-10T09:34:34.531Z,818.8461
2023-05-10T09:35:35.848Z,829.3846
2023-05-10T09:36:37.707Z,829.6923
2023-05-10T09:37:38.679Z,768.5385
2023-05-10T09:38:40.405Z,753.9231
2023-05-10T09:39:41.631Z,775.4615
2023-05-10T09:40:43.038Z,799.9231
2023-05-10T09:41:44.532Z,812.2308
2023-05-10T09:42:46.231Z,819.9231
2023-05-10T09:43:47.525Z,823.7692
2023-05-10T09:44:49.109Z,801.1539
2023-05-10T09:45:50.174Z,757.1539
2023-05-10T09:46:51.746Z,771.6154
2023-05-10T09:47:53.214Z,792.1539
2023-05-10T09:48:54.503Z,811.4615
2023-05-10T09:49:55.864Z,824.7692
2023-05-10T09:50:57.395Z,827.9231
2023-05-10T09:51:58.822Z,808.8461
2023-05-10T09:53:00.195Z,760.3846
2023-05-10T09:54:01.683Z,774.8461
2023-05-10T09:55:02.993Z,787.6923
2023-05-10T09:56:04.514Z,796.8461
2023-05-10T09:57:05.931Z,799.0769
2023-05-10T09:58:07.360Z,874.1539
2023-05-10T09:59:08.895Z,1078.0000
2023-05-10T10:00:10.143Z,1047.0000
2023-05-10T10:01:12.015Z,1002.4615
2023-05-10T10:02:13.186Z,1006.8461
2023-05-10T10:03:14.457Z,1012.6923
2023-05-10T10:04:15.916Z,1016.2308
2023-05-10T10:05:17.717Z,1014.6154
2023-05-10T10:06:26.802Z,1021.6923
2023-05-10T10:07:20.180Z,958.7500
2023-05-10T10:08:22.334Z,909.6923
2023-05-10T10:09:23.210Z,925.6154
2023-05-10T10:10:24.336Z,925.3077
2023-05-10T10:11:25.782Z,941.9231
2023-05-10T10:12:27.338Z,950.3846
2023-05-10T10:13:28.900Z,949.6923
2023-05-10T10:14:30.250Z,946.6154
2023-05-10T10:15:31.555Z,912.0769
2023-05-10T10:16:33.023Z,888.3846
2023-05-10T10:17:34.394Z,909.3077
2023-05-10T10:18:35.781Z,917.6154
2023-05-10T10:19:37.604Z,922.7692
2023-05-10T10:20:38.587Z,933.0769
2023-05-10T10:21:40.161Z,935.3846
2023-05-10T10:22:41.494Z,894.3846
2023-05-10T10:23:43.074Z,869.3077
2023-05-10T10:24:44.508Z,874.6923
2023-05-10T10:25:45.814Z,892.4615
2023-05-10T10:26:47.262Z,895.6923
2023-05-10T10:27:48.604Z,903.3846
2023-05-10T10:28:50.323Z,904.6923
2023-05-10T10:29:51.511Z,866.0000
2023-05-10T10:30:53.041Z,837.2308
2023-05-10T10:31:54.297Z,851.9231
2023-05-10T10:32:55.699Z,862.6154
2023-05-10T10:33:57.176Z,868.8461
2023-05-10T10:34:58.738Z,880.2308
2023-05-10T10:35:59.968Z,889.1539
2023-05-10T10:37:01.445Z,861.3846
2023-05-10T10:38:02.859Z,813.8461
2023-05-10T10:39:04.607Z,825.1539
2023-05-10T10:40:05.714Z,846.0000
2023-05-10T10:41:07.176Z,856.0000
2023-05-10T10:42:08.454Z,862.6923
2023-05-10T10:43:10.154Z,876.5385
2023-05-10T10:44:11.735Z,859.9231
2023-05-10T10:45:12.903Z,808.9231
2023-05-10T10:46:14.284Z,809.0769
2023-05-10T10:47:15.625Z,833.6923
2023-05-10T10:48:17.092Z,851.9231
2023-05-10T10:49:18.611Z,852.9231
2023-05-10T10:50:20.035Z,856.3846
2023-05-10T10:51:21.342Z,824.7692
2023-05-10T10:52:22.788Z,783.7692
2023-05-10T10:53:24.281Z,800.5385
2023-05-10T10:54:25.716Z,826.0000
2023-05-10T10:55:27.197Z,841.8461
2023-05-10T10:56:28.480Z,838.0000
2023-05-10T10:57:29.910Z,855.3846
2023-05-10T10:58:31.257Z,820.6923
2023-05-10T10:59:32.734Z,782.3077
2023-05-10T11:00:34.220Z,799.2308
2023-05-10T11:01:35.700Z,809.1539
2023-05-10T11:02:37.105Z,836.2308
2023-05-10T11:03:38.400Z,836.7692
2023-05-10T11:04:40.122Z,847.6923
2023-05-10T11:05:41.527Z,792.8461
2023-05-10T11:06:42.617Z,763.2308
2023-05-10T11:07:44.413Z,780.8461
2023-05-10T11:08:45.746Z,812.0000
2023-05-10T11:09:48.166Z,828.4615
2023-05-10T11:10:48.642Z,843.2308
2023-05-10T11:11:50.230Z,851.6923
2023-05-10T11:12:51.142Z,814.0000
2023-05-10T11:13:52.663Z,778.0769
2023-05-10T11:14:54.038Z,799.0769
2023-05-10T11:15:55.528Z,827.0000
2023-05-10T11:16:56.924Z,843.4615
2023-05-10T11:17:58.340Z,860.5385
2023-05-10T11:18:59.771Z,835.5385
2023-05-10T11:20:01.170Z,771.8461
2023-05-10T11:21:02.664Z,781.4615
2023-05-10T11:22:04.069Z,814.5385
2023-05-10T11:23:05.432Z,841.1539
2023-05-10T11:24:07.103Z,853.2308
2023-05-10T11:25:08.500Z,825.0769
2023-05-10T11:26:09.582Z,769.0769
2023-05-10T11:27:11.069Z,786.1539
2023-05-10T11:28:12.466Z,812.0769
2023-05-10T11:29:13.976Z,841.0000
2023-05-10T11:30:15.877Z,852.5385
2023-05-10T11:31:16.945Z,849.4615
2023-05-10T11:32:18.161Z,789.4615
2023-05-10T11:33:19.610Z,776.3846
2023-05-10T11:34:20.992Z,816.3846
2023-05-10T11:35:22.446Z,826.0769
2023-05-10T11:36:23.871Z,841.1539
2023-05-10T11:37:25.305Z,843.7692
2023-05-10T11:38:26.735Z,825.2308
2023-05-10T11:39:28.106Z,765.0769
2023-05-10T11:40:29.548Z,779.6154
2023-05-10T11:41:31.093Z,800.8461
2023-05-10T11:42:32.340Z,818.0769
2023-05-10T11:43:33.984Z,819.3846
2023-05-10T11:44:35.294Z,820.2308
2023-05-10T11:45:36.633Z,809.6923
2023-05-10T11:46:38.446Z,745.0769
2023-05-10T11:47:40.794Z,771.6923
2023-05-10T11:48:40.970Z,788.8461
2023-05-10T11:49:42.316Z,798.4615
2023-05-10T11:50:43.884Z,805.3846
2023-05-10T11:51:45.198Z,816.9231
2023-05-10T11:52:46.941Z,792.6923
2023-05-10T11:53:48.048Z,733.5385
2023-05-10T11:54:49.474Z,760.3077
2023-05-10T11:55:50.931Z,781.5385
2023-05-10T11:56:52.398Z,800.3846
2023-05-10T11:57:54.115Z,805.3846
2023-05-10T11:58:55.142Z,817.0769
2023-05-10T11:59:56.659Z,779.0769
2023-05-10T12:00:57.995Z,733.8461